Time;durP1;ratioP1;P1;durP2;ratioP2;P2;SDS_P1;SDS_P2;PMS_P1;PMS_P2;Temp;Humidity;BMP_temperature;BMP_pressure;BME280_temperature;BME280_humidity;BME280_pressure;Samples;Min_cycle;Max_cycle;Signal;HPM_P1;HPM_P2
2022/03/17 00:00:40;;;;;;;17.27;15.50;;;;;;;10.74;58.97;95131.00;5053318;28;20248;-77
2022/03/17 00:03:09;;;;;;;18.67;14.73;;;;;;;10.46;59.89;95127.44;5030167;28;20163;-76
2022/03/17 00:05:37;;;;;;;19.30;15.43;;;;;;;10.62;59.24;95142.13;5050540;28;20469;-76
2022/03/17 00:08:03;;;;;;;19.83;16.70;;;;;;;10.53;59.71;95133.56;5034593;28;20460;-76
2022/03/17 00:10:29;;;;;;;24.00;16.60;;;;;;;10.27;60.53;95129.56;5051311;28;20477;-76
2022/03/17 00:12:55;;;;;;;21.07;15.93;;;;;;;10.58;59.64;95136.44;5051038;28;20468;-76
2022/03/17 00:15:20;;;;;;;18.30;15.80;;;;;;;10.48;59.46;95131.47;5050807;28;20183;-77
2022/03/17 00:17:46;;;;;;;22.70;16.27;;;;;;;10.52;59.35;95137.16;5050698;28;20194;-77
2022/03/17 00:20:12;;;;;;;18.67;15.00;;;;;;;10.48;59.58;95130.66;5052515;28;20248;-77
2022/03/17 00:22:39;;;;;;;18.47;15.40;;;;;;;10.49;59.38;95127.88;5049679;28;20172;-76
2022/03/17 00:25:06;;;;;;;18.87;15.80;;;;;;;10.32;59.83;95124.63;5039489;28;20424;-76
2022/03/17 00:27:32;;;;;;;17.53;13.70;;;;;;;10.19;59.88;95124.41;5070923;28;20401;-77
2022/03/17 00:29:58;;;;;;;21.70;14.43;;;;;;;10.21;60.40;95129.47;5071111;28;20417;-76
2022/03/17 00:32:23;;;;;;;17.70;15.77;;;;;;;10.18;60.33;95127.22;5037353;28;20459;-76
2022/03/17 00:37:34;;;;;;;17.43;14.33;;;;;;;10.33;59.86;95138.50;5061103;28;20201;-76
2022/03/17 00:39:59;;;;;;;18.53;14.80;;;;;;;10.62;59.36;95131.66;5053908;28;20417;-76
2022/03/17 00:42:26;;;;;;;16.70;15.10;;;;;;;10.59;59.19;95135.44;5043415;28;20179;-76
2022/03/17 00:44:53;;;;;;;19.27;14.37;;;;;;;10.59;59.24;95132.81;5035874;28;20636;-76
2022/03/17 00:47:19;;;;;;;16.93;14.67;;;;;;;10.76;58.90;95136.06;5034296;28;20401;-76
2022/03/17 00:49:44;;;;;;;20.97;16.77;;;;;;;10.57;59.19;95141.84;5055516;28;20428;-76
2022/03/17 00:52:11;;;;;;;18.10;16.20;;;;;;;10.87;58.60;95142.63;5049276;28;20198;-76
2022/03/17 00:54:41;;;;;;;20.20;17.60;;;;;;;11.08;58.22;95142.69;5072849;28;20234;-76
2022/03/17 00:57:09;;;;;;;19.70;15.13;;;;;;;11.16;57.91;95148.81;5072473;28;20463;-76
2022/03/17 00:59:38;;;;;;;19.00;14.90;;;;;;;10.44;60.69;95152.97;5035847;28;20422;-76
2022/03/17 01:02:05;;;;;;;17.47;15.67;;;;;;;10.41;61.05;95159.34;5051782;28;20468;-76
2022/03/17 01:04:30;;;;;;;18.53;16.30;;;;;;;9.74;63.26;95160.94;5042896;28;20423;-76
2022/03/17 01:06:56;;;;;;;22.73;16.60;;;;;;;9.15;65.13;95166.75;5035357;28;20421;-76
2022/03/17 01:09:21;;;;;;;14.50;13.00;;;;;;;9.27;65.84;95169.75;5051538;28;20733;-76
2022/03/17 01:11:48;;;;;;;16.77;13.93;;;;;;;9.54;64.72;95175.47;5058901;28;20197;-76
2022/03/17 01:14:14;;;;;;;16.50;13.13;;;;;;;8.92;65.85;95181.56;5054508;28;20201;-76
2022/03/17 01:16:40;;;;;;;14.03;12.63;;;;;;;9.32;64.88;95177.09;5070964;28;20422;-76
2022/03/17 01:19:06;;;;;;;15.33;11.70;;;;;;;9.27;64.71;95177.59;5071354;28;20228;-76
2022/03/17 01:21:33;;;;;;;15.30;12.20;;;;;;;9.40;62.35;95187.47;5072284;28;20536;-76
2022/03/17 01:23:58;;;;;;;11.53;10.43;;;;;;;9.11;63.75;95186.34;5070374;28;20433;-76
2022/03/17 01:26:24;;;;;;;12.60;11.37;;;;;;;9.23;63.00;95185.97;5051660;28;20191;-76
2022/03/17 01:28:49;;;;;;;9.40;8.10;;;;;;;8.50;64.61;95186.13;5051999;28;20176;-77
2022/03/17 01:31:15;;;;;;;9.93;8.60;;;;;;;8.91;62.77;95185.13;5051825;28;20195;-76
2022/03/17 01:33:40;;;;;;;11.30;9.90;;;;;;;8.77;63.07;95184.88;5050715;28;20254;-76
2022/03/17 01:36:06;;;;;;;12.77;9.10;;;;;;;9.24;62.00;95190.19;5051820;28;20206;-77
2022/03/17 01:38:31;;;;;;;9.77;8.20;;;;;;;9.28;61.70;95189.69;5035091;28;20171;-76
2022/03/17 01:40:57;;;;;;;9.63;8.60;;;;;;;9.25;61.61;95190.00;5034265;28;20183;-77
2022/03/17 01:43:22;;;;;;;7.80;7.10;;;;;;;9.04;61.69;95197.66;5035026;28;20194;-76
2022/03/17 01:45:51;;;;;;;10.33;7.50;;;;;;;9.21;61.60;95206.22;5033073;28;20282;-76
2022/03/17 01:48:16;;;;;;;9.00;8.00;;;;;;;9.76;60.22;95211.22;5044520;28;20192;-77
2022/03/17 01:50:41;;;;;;;7.50;6.50;;;;;;;9.88;59.91;95201.16;5072199;28;20417;-77
2022/03/17 01:53:07;;;;;;;8.67;7.83;;;;;;;9.85;59.01;95206.75;5072281;28;20194;-77
2022/03/17 01:55:32;;;;;;;9.23;8.37;;;;;;;9.91;59.61;95203.44;5058005;28;20193;-77
2022/03/17 01:57:59;;;;;;;9.20;8.30;;;;;;;10.07;59.29;95196.44;5034191;28;20274;-77
2022/03/17 02:00:24;;;;;;;9.73;8.73;;;;;;;10.25;58.89;95199.53;5051884;28;20233;-77
2022/03/17 02:02:52;;;;;;;9.70;8.80;;;;;;;10.14;59.26;95195.56;5048027;28;20406;-76
2022/03/17 02:05:18;;;;;;;10.50;9.50;;;;;;;10.24;59.29;95197.09;5051511;28;20183;-77
2022/03/17 02:07:49;;;;;;;9.97;8.93;;;;;;;10.15;59.03;95188.53;5051597;28;20481;-76
2022/03/17 02:10:15;;;;;;;11.60;10.27;;;;;;;10.29;59.27;95192.97;5052270;28;20505;-77
2022/03/17 02:15:27;;;;;;;10.93;8.80;;;;;;;10.13;60.22;95185.25;5061108;28;20436;-76
2022/03/17 02:17:53;;;;;;;9.07;8.10;;;;;;;9.97;60.90;95192.25;5070262;28;20413;-76
2022/03/17 02:20:35;;;;;;;11.80;10.23;;;;;;;9.82;61.55;95194.03;5058744;28;20437;-77
2022/03/17 02:25:54;;;;;;;11.70;10.50;;;;;;;9.76;61.62;95211.22;5050668;28;20429;-76
2022/03/17 02:28:22;;;;;;;11.20;10.20;;;;;;;9.74;62.16;95217.63;5051367;28;20458;-76
2022/03/17 02:30:48;;;;;;;14.40;11.17;;;;;;;9.92;61.56;95210.31;5049358;28;20421;-76
2022/03/17 02:33:16;;;;;;;11.47;10.30;;;;;;;9.76;61.60;95211.22;5071315;28;20844;-76
2022/03/17 02:35:43;;;;;;;12.93;11.67;;;;;;;9.66;62.04;95213.28;5069762;28;20502;-76
2022/03/17 02:38:13;;;;;;;11.63;10.10;;;;;;;9.48;62.24;95218.75;5033661;28;20489;-77
2022/03/17 02:40:40;;;;;;;10.80;9.70;;;;;;;9.69;62.41;95227.78;5051404;28;20426;-76
2022/03/17 02:43:07;;;;;;;11.27;10.17;;;;;;;9.77;62.29;95225.13;5046459;28;20433;-77
2022/03/17 02:45:33;;;;;;;10.53;9.50;;;;;;;9.70;61.56;95232.03;5050869;28;20433;-77
2022/03/17 02:47:59;;;;;;;10.47;9.47;;;;;;;9.40;61.95;95231.09;5050823;28;20509;-76
2022/03/17 02:50:24;;;;;;;10.97;9.70;;;;;;;9.61;61.89;95228.66;5051106;28;20429;-76
2022/03/17 02:52:50;;;;;;;9.87;9.07;;;;;;;9.67;61.78;95233.19;5049772;28;20206;-76
2022/03/17 02:55:15;;;;;;;9.87;8.87;;;;;;;9.82;61.11;95225.41;5051706;28;20195;-77
2022/03/17 02:57:44;;;;;;;12.57;11.20;;;;;;;9.93;60.92;95232.81;5051233;28;20168;-76
2022/03/17 03:00:11;;;;;;;11.83;10.63;;;;;;;9.50;62.12;95235.06;5051589;28;20184;-76
2022/03/17 03:02:37;;;;;;;9.80;8.90;;;;;;;9.66;62.05;95234.19;5050839;28;20410;-77
2022/03/17 03:05:05;;;;;;;10.67;9.63;;;;;;;9.60;61.54;95247.09;5063814;28;20488;-76
2022/03/17 03:07:31;;;;;;;10.80;8.93;;;;;;;9.74;61.92;95246.38;5031850;28;20430;-76
2022/03/17 03:09:57;;;;;;;9.03;8.13;;;;;;;9.21;62.30;95243.56;5048483;28;20462;-76
2022/03/17 03:12:22;;;;;;;9.33;8.30;;;;;;;9.25;62.87;95249.28;5049573;28;20194;-76
2022/03/17 03:14:48;;;;;;;12.90;9.97;;;;;;;9.11;63.41;95248.22;5049941;28;20438;-77
2022/03/17 03:17:14;;;;;;;7.80;7.10;;;;;;;8.92;63.95;95246.81;5031967;28;20168;-76
2022/03/17 03:19:40;;;;;;;6.73;6.10;;;;;;;8.51;65.19;95252.13;5048125;28;20434;-76
2022/03/17 03:22:05;;;;;;;7.67;6.97;;;;;;;8.63;64.32;95253.41;5047919;28;20171;-76
2022/03/17 03:24:31;;;;;;;7.97;7.17;;;;;;;9.27;62.94;95252.53;5048385;28;20178;-77
2022/03/17 03:26:56;;;;;;;7.40;6.73;;;;;;;9.45;62.30;95253.09;5050357;28;20171;-76
2022/03/17 03:31:51;;;;;;;7.83;7.17;;;;;;;9.19;63.13;95256.78;5049600;28;20201;-76
2022/03/17 03:34:17;;;;;;;7.33;6.60;;;;;;;9.12;63.63;95255.84;5049211;28;20164;-76
2022/03/17 03:39:27;;;;;;;7.70;6.90;;;;;;;9.15;61.73;95252.91;5048293;28;20467;-76
2022/03/17 03:41:53;;;;;;;7.83;7.10;;;;;;;8.94;60.64;95250.88;5049621;28;20414;-76
2022/03/17 03:44:18;;;;;;;8.30;7.60;;;;;;;8.85;60.66;95266.72;5049722;28;20168;-76
2022/03/17 03:46:44;;;;;;;7.60;6.67;;;;;;;8.77;60.58;95273.59;5060646;28;20190;-76
2022/03/17 03:49:10;;;;;;;7.67;6.73;;;;;;;8.99;59.82;95266.00;5042262;28;20168;-76
2022/03/17 03:51:35;;;;;;;8.10;7.40;;;;;;;9.11;58.84;95262.06;5049094;28;20424;-77
2022/03/17 03:54:13;;;;;;;9.40;7.77;;;;;;;8.79;58.51;95273.44;5048085;28;20202;-76
2022/03/17 03:56:43;;;;;;;8.67;7.80;;;;;;;8.70;59.35;95277.84;5048572;28;20175;-77
2022/03/17 03:59:17;;;;;;;8.83;7.90;;;;;;;9.13;58.18;95277.56;5048697;28;20410;-76
2022/03/17 04:01:43;;;;;;;9.10;7.80;;;;;;;9.11;58.00;95288.19;5049465;28;20429;-76
2022/03/17 04:04:09;;;;;;;9.90;7.70;;;;;;;8.55;60.44;95287.34;5046670;28;20418;-75
2022/03/17 04:06:42;;;;;;;10.57;8.97;;;;;;;8.32;61.69;95295.00;5047501;28;20175;-76
2022/03/17 04:09:08;;;;;;;14.70;8.90;;;;;;;8.74;60.26;95302.63;5048704;28;20457;-76
2022/03/17 04:11:33;;;;;;;11.40;10.00;;;;;;;8.57;60.36;95295.81;5049784;28;20422;-76
2022/03/17 04:13:58;;;;;;;11.60;9.97;;;;;;;8.78;58.84;95300.50;5048890;28;20195;-75
2022/03/17 04:16:24;;;;;;;11.37;10.13;;;;;;;8.44;60.31;95298.91;5029350;28;20194;-76
2022/03/17 04:18:49;;;;;;;13.33;10.50;;;;;;;8.66;59.13;95313.09;5058019;28;20258;-76
2022/03/17 04:21:15;;;;;;;11.90;9.60;;;;;;;8.57;59.85;95319.28;5046212;28;20180;-77
2022/03/17 04:23:40;;;;;;;10.87;9.77;;;;;;;8.56;59.14;95313.25;5046445;28;20701;-76
2022/03/17 04:26:05;;;;;;;10.60;8.60;;;;;;;7.78;62.22;95329.34;5046948;28;20251;-76
2022/03/17 04:28:31;;;;;;;12.00;10.80;;;;;;;8.04;60.83;95331.00;5047574;28;20227;-76
2022/03/17 04:30:56;;;;;;;12.63;10.83;;;;;;;7.78;61.99;95331.94;5047973;28;20203;-77
2022/03/17 04:33:22;;;;;;;12.93;10.10;;;;;;;7.77;63.10;95340.72;5047809;28;20199;-77
2022/03/17 04:35:47;;;;;;;13.93;11.40;;;;;;;7.85;62.06;95335.53;5048421;28;20186;-76
2022/03/17 04:38:12;;;;;;;11.50;9.03;;;;;;;7.86;61.68;95347.59;5048254;28;20167;-76
2022/03/17 04:40:38;;;;;;;11.67;10.07;;;;;;;7.76;62.35;95350.34;5047197;28;20611;-76
2022/03/17 04:43:03;;;;;;;14.70;10.70;;;;;;;7.84;62.54;95352.13;5046790;28;20191;-77
2022/03/17 04:45:29;;;;;;;12.13;9.67;;;;;;;7.84;62.28;95349.53;5049119;28;20187;-76
2022/03/17 04:47:54;;;;;;;11.33;10.00;;;;;;;7.31;64.88;95348.88;5049411;28;20202;-76
2022/03/17 04:50:20;;;;;;;13.97;10.70;;;;;;;7.10;65.07;95349.28;5045674;28;20243;-77
2022/03/17 04:55:29;;;;;;;12.20;10.97;;;;;;;7.91;63.28;95355.75;5053160;28;20186;-76
2022/03/17 04:57:54;;;;;;;11.70;10.03;;;;;;;7.97;62.08;95360.31;5034601;28;20418;-77
2022/03/17 05:00:20;;;;;;;15.73;11.03;;;;;;;7.70;62.57;95360.56;5052455;28;20179;-76
2022/03/17 05:02:46;;;;;;;12.70;11.30;;;;;;;7.94;62.54;95370.25;5053457;28;20187;-76
2022/03/17 05:05:11;;;;;;;15.30;11.80;;;;;;;7.87;62.21;95364.84;5053762;28;20928;-76
2022/03/17 05:07:37;;;;;;;13.47;11.63;;;;;;;8.12;61.88;95367.47;5035874;28;20202;-76
2022/03/17 05:10:03;;;;;;;10.27;9.10;;;;;;;8.11;61.93;95376.31;5049235;28;20235;-78
2022/03/17 05:12:28;;;;;;;13.47;10.80;;;;;;;7.97;61.27;95380.34;5053408;28;20199;-77
2022/03/17 05:14:53;;;;;;;15.20;10.50;;;;;;;8.20;61.29;95377.94;5032245;28;20426;-77
2022/03/17 05:17:19;;;;;;;14.83;10.87;;;;;;;7.88;62.73;95384.72;5043171;28;20182;-76
2022/03/17 05:19:45;;;;;;;14.90;10.90;;;;;;;7.86;62.24;95388.47;5068503;28;20183;-76
2022/03/17 05:22:10;;;;;;;10.73;9.70;;;;;;;7.86;61.82;95397.09;5053194;28;20155;-77
2022/03/17 05:24:36;;;;;;;10.30;8.23;;;;;;;7.88;61.33;95395.16;5052739;28;20422;-77
2022/03/17 05:27:01;;;;;;;10.17;9.07;;;;;;;8.34;60.40;95400.75;5035111;28;20303;-77
2022/03/17 05:29:27;;;;;;;11.27;9.80;;;;;;;8.26;60.20;95395.53;5052816;28;20588;-77
2022/03/17 05:31:53;;;;;;;10.07;8.93;;;;;;;8.27;60.75;95391.97;5034542;28;20183;-77
2022/03/17 05:34:18;;;;;;;14.00;10.70;;;;;;;7.86;61.99;95404.91;5051284;28;20429;-77
2022/03/17 05:36:45;;;;;;;14.03;11.13;;;;;;;8.11;61.65;95402.38;5032364;28;20592;-77
2022/03/17 05:39:10;;;;;;;14.73;11.10;;;;;;;8.11;61.20;95399.75;5031354;28;20171;-77
2022/03/17 05:41:36;;;;;;;11.97;9.93;;;;;;;8.29;60.31;95408.28;5050733;28;20441;-78
2022/03/17 05:44:01;;;;;;;10.70;9.60;;;;;;;8.54;60.21;95413.53;5048855;28;20254;-77
2022/03/17 05:46:26;;;;;;;9.20;8.40;;;;;;;8.21;60.02;95423.88;5049467;28;20168;-77
2022/03/17 05:48:53;;;;;;;11.13;10.10;;;;;;;8.45;59.93;95435.38;5049074;28;20222;-77
2022/03/17 05:51:18;;;;;;;11.80;9.53;;;;;;;8.63;58.80;95428.19;5043635;28;20171;-77
2022/03/17 05:53:44;;;;;;;9.00;8.10;;;;;;;8.34;60.25;95439.88;5048019;28;20450;-77
2022/03/17 05:56:09;;;;;;;11.10;8.87;;;;;;;8.19;60.30;95444.09;5029996;28;20191;-77
2022/03/17 05:58:35;;;;;;;10.83;9.03;;;;;;;8.29;59.60;95451.75;5050281;28;20167;-77
2022/03/17 06:01:00;;;;;;;9.50;8.50;;;;;;;7.67;62.11;95445.06;5051897;28;20183;-77
2022/03/17 06:03:26;;;;;;;7.93;7.10;;;;;;;7.93;60.42;95455.44;5050537;28;20155;-77
2022/03/17 06:05:51;;;;;;;8.50;6.90;;;;;;;8.17;60.51;95448.66;5054369;28;20190;-77
2022/03/17 06:08:17;;;;;;;7.63;6.90;;;;;;;8.17;60.00;95444.25;5058757;28;20234;-77
2022/03/17 06:10:42;;;;;;;8.67;6.80;;;;;;;8.02;60.68;95445.81;5070069;28;20218;-76
2022/03/17 06:13:08;;;;;;;8.47;6.77;;;;;;;7.83;61.03;95452.13;5070381;28;20195;-77
2022/03/17 06:15:34;;;;;;;10.50;7.63;;;;;;;8.22;59.96;95449.00;5064271;28;20175;-77
2022/03/17 06:18:01;;;;;;;9.30;5.53;;;;;;;7.45;62.29;95456.00;5033356;28;20175;-76
2022/03/17 06:20:31;;;;;;;9.93;7.20;;;;;;;7.68;62.54;95458.91;5049316;28;20440;-77
2022/03/17 06:22:59;;;;;;;7.77;7.00;;;;;;;6.98;65.00;95457.16;5045632;28;20428;-76
2022/03/17 06:25:27;;;;;;;8.13;7.40;;;;;;;7.61;63.57;95459.53;5062145;28;20434;-77
2022/03/17 06:27:53;;;;;;;9.97;7.20;;;;;;;7.69;62.06;95468.34;5067591;28;20409;-77
2022/03/17 06:30:24;;;;;;;8.00;7.20;;;;;;;7.09;64.52;95467.34;5044206;28;20430;-77
2022/03/17 06:32:50;;;;;;;9.33;8.43;;;;;;;8.12;61.78;95471.75;5043131;28;20488;-76
2022/03/17 06:35:22;;;;;;;8.47;7.67;;;;;;;7.78;62.47;95475.25;5043636;28;20430;-78
2022/03/17 06:37:55;;;;;;;8.40;7.53;;;;;;;7.67;62.52;95473.72;5031355;28;20442;-77
2022/03/17 06:40:22;;;;;;;7.97;7.20;;;;;;;7.19;63.77;95481.09;5026780;28;20438;-77
2022/03/17 06:42:48;;;;;;;7.67;7.00;;;;;;;6.96;64.87;95485.13;5034985;28;20417;-78
2022/03/17 06:45:14;;;;;;;10.87;8.40;;;;;;;7.09;64.75;95484.75;5054587;28;20425;-78
2022/03/17 06:47:41;;;;;;;7.37;6.20;;;;;;;6.88;65.66;95482.47;5066729;28;20833;-78
2022/03/17 06:50:07;;;;;;;9.40;8.60;;;;;;;6.54;66.21;95490.94;5057354;28;20180;-78
2022/03/17 06:52:33;;;;;;;7.73;6.43;;;;;;;7.10;64.82;95489.81;5066581;28;20456;-78
2022/03/17 06:54:59;;;;;;;10.20;7.30;;;;;;;6.81;66.31;95492.66;5057279;28;20437;-78
2022/03/17 06:57:24;;;;;;;9.70;8.80;;;;;;;7.16;64.45;95501.41;5052787;28;20254;-79
2022/03/17 06:59:50;;;;;;;9.50;8.50;;;;;;;7.07;65.83;95497.91;5055063;28;20179;-79
2022/03/17 07:02:16;;;;;;;10.60;9.47;;;;;;;7.33;65.27;95504.94;5038620;28;20167;-79
2022/03/17 07:04:42;;;;;;;8.80;7.90;;;;;;;7.54;64.52;95502.78;5063354;28;20434;-79
2022/03/17 07:07:08;;;;;;;9.27;8.30;;;;;;;7.60;64.42;95511.75;5049473;28;20417;-79
2022/03/17 07:09:34;;;;;;;9.00;7.60;;;;;;;7.63;64.41;95511.47;5062683;28;20302;-79
2022/03/17 07:12:00;;;;;;;9.97;8.90;;;;;;;7.82;63.53;95513.03;5064345;28;20420;-79
2022/03/17 07:14:25;;;;;;;9.83;8.57;;;;;;;7.88;64.55;95514.19;5052417;28;20485;-79
2022/03/17 07:16:51;;;;;;;7.13;6.63;;;;;;;7.65;63.86;95516.53;5066930;28;20713;-78
2022/03/17 07:19:16;;;;;;;7.20;6.50;;;;;;;7.00;64.44;95517.69;5063673;28;20619;-77
2022/03/17 07:21:42;;;;;;;7.83;7.03;;;;;;;7.14;65.60;95519.75;5058536;28;20188;-78
2022/03/17 07:24:09;;;;;;;9.27;8.37;;;;;;;7.20;64.66;95521.75;5051143;28;20218;-78
2022/03/17 07:26:35;;;;;;;11.70;8.23;;;;;;;7.53;64.45;95518.56;5061116;28;20217;-77
2022/03/17 07:29:02;;;;;;;16.07;9.23;;;;;;;7.38;64.22;95523.50;5065890;28;20796;-78
2022/03/17 07:31:28;;;;;;;11.40;6.57;;;;;;;7.23;64.07;95533.66;5058199;28;20428;-77
2022/03/17 07:33:54;;;;;;;10.70;9.43;;;;;;;6.81;65.67;95532.50;5057406;28;20909;-78
2022/03/17 07:36:20;;;;;;;11.90;7.73;;;;;;;6.77;66.18;95536.38;5058620;28;20449;-78
2022/03/17 07:38:46;;;;;;;9.07;8.07;;;;;;;6.93;65.79;95532.28;5063865;28;20193;-78
2022/03/17 07:41:11;;;;;;;10.10;9.10;;;;;;;7.22;64.85;95542.44;5057185;28;20432;-77
2022/03/17 07:43:37;;;;;;;12.20;8.23;;;;;;;7.56;64.06;95537.31;5067514;28;20158;-77
2022/03/17 07:46:02;;;;;;;9.93;8.80;;;;;;;7.78;63.60;95537.78;5054913;28;20186;-76
2022/03/17 07:48:28;;;;;;;10.90;8.90;;;;;;;7.92;62.67;95542.38;5059492;28;20245;-76
2022/03/17 07:50:53;;;;;;;11.93;9.60;;;;;;;7.97;62.81;95545.34;5054574;28;20186;-76
2022/03/17 07:53:19;;;;;;;11.60;9.47;;;;;;;7.96;62.86;95540.28;5066738;28;20194;-76
2022/03/17 07:55:45;;;;;;;9.73;8.80;;;;;;;7.75;62.31;95535.47;5063965;28;20174;-76
2022/03/17 07:58:11;;;;;;;11.47;10.13;;;;;;;7.90;62.24;95538.31;5041864;28;20175;-76
2022/03/17 08:00:38;;;;;;;11.93;10.70;;;;;;;8.09;62.12;95540.69;5050716;28;20496;-77
2022/03/17 08:03:06;;;;;;;12.53;9.30;;;;;;;7.58;63.62;95545.78;5052962;28;20453;-76
2022/03/17 08:05:32;;;;;;;9.70;8.70;;;;;;;7.71;63.50;95541.97;5053087;28;20469;-77
2022/03/17 08:08:00;;;;;;;13.53;9.77;;;;;;;7.79;63.47;95544.59;5059091;28;20444;-78
2022/03/17 08:10:28;;;;;;;11.13;10.03;;;;;;;7.96;62.82;95548.09;5049966;28;20647;-77
2022/03/17 08:12:54;;;;;;;10.33;9.27;;;;;;;7.58;63.94;95547.56;5062585;28;20460;-77
2022/03/17 08:15:20;;;;;;;10.83;9.67;;;;;;;7.32;64.76;95544.94;5031416;28;20441;-77
2022/03/17 08:17:45;;;;;;;16.43;12.97;;;;;;;8.04;62.18;95542.13;5058873;28;20448;-78
2022/03/17 08:20:11;;;;;;;18.60;12.00;;;;;;;8.14;62.51;95543.63;5050237;28;20187;-77
2022/03/17 08:22:36;;;;;;;11.10;10.00;;;;;;;7.77;63.30;95541.34;5055511;28;20673;-77
2022/03/17 08:25:03;;;;;;;10.50;9.23;;;;;;;7.73;63.13;95545.22;5054848;28;20246;-77
2022/03/17 08:27:29;;;;;;;12.83;11.63;;;;;;;7.48;64.00;95547.69;5062831;28;20175;-77
2022/03/17 08:29:54;;;;;;;11.67;10.27;;;;;;;6.93;65.65;95547.91;5048093;28;20440;-77
2022/03/17 08:32:20;;;;;;;11.83;10.53;;;;;;;7.20;65.15;95542.56;5064201;28;20601;-76
2022/03/17 08:34:46;;;;;;;11.70;10.50;;;;;;;7.50;64.36;95548.34;5046976;28;20212;-77
2022/03/17 08:37:11;;;;;;;18.10;11.80;;;;;;;8.10;64.37;95551.91;5060670;28;20485;-77
2022/03/17 08:39:38;;;;;;;14.43;12.13;;;;;;;8.28;63.37;95554.44;5056397;28;20164;-77
2022/03/17 08:42:03;;;;;;;12.90;11.70;;;;;;;8.40;62.88;95553.19;5062282;28;20185;-77
2022/03/17 08:44:29;;;;;;;12.10;11.00;;;;;;;8.77;61.82;95545.00;5060569;28;20430;-77
2022/03/17 08:49:38;;;;;;;12.47;11.27;;;;;;;9.24;59.88;95550.56;5066266;28;20174;-77
2022/03/17 08:52:04;;;;;;;12.10;10.93;;;;;;;8.93;59.12;95549.41;5062902;28;20506;-77
2022/03/17 08:54:34;;;;;;;11.47;9.80;;;;;;;8.73;59.66;95548.91;5057640;28;20175;-77
2022/03/17 08:56:59;;;;;;;13.93;12.43;;;;;;;8.81;60.76;95552.50;5070008;28;20429;-77
2022/03/17 08:59:33;;;;;;;12.97;11.67;;;;;;;8.32;62.30;95553.97;5060694;28;20408;-77
2022/03/17 09:02:00;;;;;;;12.37;11.20;;;;;;;8.63;61.93;95553.44;5049506;28;20470;-77
2022/03/17 09:04:27;;;;;;;13.20;11.80;;;;;;;8.89;61.42;95568.97;5036184;28;20869;-77
2022/03/17 09:06:59;;;;;;;15.30;13.30;;;;;;;8.84;60.47;95560.84;5062471;28;20547;-77
2022/03/17 09:09:29;;;;;;;12.37;11.13;;;;;;;8.98;60.80;95565.41;5067094;28;20457;-77
2022/03/17 09:11:55;;;;;;;13.70;12.17;;;;;;;9.09;60.13;95566.91;5062315;28;20940;-77
2022/03/17 09:14:21;;;;;;;19.03;13.00;;;;;;;9.40;59.85;95575.88;5047073;28;20429;-77
2022/03/17 09:16:47;;;;;;;42.40;14.80;;;;;;;9.43;59.14;95576.38;5051893;28;20238;-77
2022/03/17 09:19:13;;;;;;;13.83;12.53;;;;;;;8.77;60.41;95576.31;5065881;28;20453;-77
2022/03/17 09:21:38;;;;;;;16.13;13.30;;;;;;;8.85;60.51;95579.91;5042402;28;20194;-77
2022/03/17 09:24:04;;;;;;;14.13;12.67;;;;;;;9.36;58.66;95581.44;5044802;28;20235;-77
2022/03/17 09:26:33;;;;;;;15.90;12.57;;;;;;;9.11;59.87;95592.84;5063943;28;20241;-77
2022/03/17 09:28:59;;;;;;;16.23;14.53;;;;;;;9.04;60.00;95592.66;5057531;28;20428;-78
2022/03/17 09:31:26;;;;;;;17.60;13.17;;;;;;;9.02;60.16;95602.47;5058937;28;20451;-77
2022/03/17 09:33:51;;;;;;;13.27;11.93;;;;;;;9.05;59.82;95594.31;5040693;28;20452;-77
2022/03/17 09:36:17;;;;;;;14.40;12.50;;;;;;;8.99;59.90;95601.00;5063637;28;20451;-77
2022/03/17 09:38:43;;;;;;;14.43;12.93;;;;;;;8.93;60.55;95603.41;5060994;28;20201;-78
2022/03/17 09:41:25;;;;;;;12.07;10.97;;;;;;;9.12;58.97;95605.72;5056448;28;20171;-77
2022/03/17 09:43:53;;;;;;;11.43;10.33;;;;;;;9.44;58.41;95611.97;5058073;28;20508;-77
2022/03/17 09:46:21;;;;;;;11.23;10.17;;;;;;;9.33;57.50;95607.06;5041206;28;20446;-77
2022/03/17 09:48:52;;;;;;;11.20;10.10;;;;;;;9.18;57.87;95610.34;5061550;28;20433;-77
2022/03/17 09:51:22;;;;;;;10.67;8.43;;;;;;;8.96;57.92;95611.75;5052037;28;20453;-77
2022/03/17 09:53:47;;;;;;;10.13;9.13;;;;;;;9.29;57.04;95608.38;5056539;28;20479;-76
2022/03/17 09:56:13;;;;;;;9.90;8.90;;;;;;;8.90;58.48;95609.78;5064617;28;20437;-77
2022/03/17 09:58:38;;;;;;;11.90;10.70;;;;;;;9.01;57.86;95608.69;5057307;28;20206;-77
2022/03/17 10:01:06;;;;;;;11.60;10.00;;;;;;;8.77;57.96;95609.44;5036653;28;20171;-77
2022/03/17 10:03:34;;;;;;;12.03;10.53;;;;;;;9.23;58.18;95611.63;5052391;28;20438;-78
2022/03/17 10:06:06;;;;;;;11.00;9.90;;;;;;;9.44;57.49;95608.53;5060151;28;20453;-78
2022/03/17 10:08:33;;;;;;;12.43;10.63;;;;;;;9.43;57.90;95612.97;5050225;28;20461;-77
2022/03/17 10:10:59;;;;;;;9.77;8.80;;;;;;;9.60;57.10;95621.63;5056714;28;20412;-77
2022/03/17 10:13:26;;;;;;;9.80;8.97;;;;;;;9.78;55.85;95617.00;5062264;28;21050;-77
2022/03/17 10:16:08;;;;;;;10.10;8.60;;;;;;;9.26;55.73;95616.50;5054966;28;20422;-77
2022/03/17 10:18:36;;;;;;;8.80;8.00;;;;;;;9.26;56.68;95625.19;5017626;28;20435;-77
2022/03/17 10:21:12;;;;;;;10.27;9.20;;;;;;;9.42;56.27;95616.53;5057603;28;20497;-78
2022/03/17 10:23:50;;;;;;;11.17;10.10;;;;;;;9.37;56.17;95622.25;5054972;28;20425;-77
2022/03/17 10:26:49;;;;;;;12.20;10.43;;;;;;;9.17;57.22;95613.91;5059372;28;20424;-78
2022/03/17 10:29:25;;;;;;;11.00;10.07;;;;;;;9.15;56.61;95620.28;5048829;28;20422;-77
2022/03/17 10:31:59;;;;;;;12.80;11.60;;;;;;;9.62;56.21;95621.44;5038431;28;20443;-77
2022/03/17 10:34:46;;;;;;;12.00;10.70;;;;;;;9.71;56.28;95612.59;5060770;28;20453;-77
2022/03/17 10:37:17;;;;;;;11.63;10.53;;;;;;;9.69;56.92;95617.19;5055952;28;20498;-78
2022/03/17 10:39:48;;;;;;;10.77;9.67;;;;;;;9.72;57.41;95622.09;5032939;28;20440;-77
2022/03/17 10:42:18;;;;;;;10.17;9.17;;;;;;;10.07;55.29;95617.47;5058281;28;20464;-77
2022/03/17 10:44:49;;;;;;;10.90;9.50;;;;;;;9.43;55.30;95619.97;5051389;28;20808;-77
2022/03/17 10:47:22;;;;;;;15.17;12.37;;;;;;;9.66;54.76;95612.31;5055101;28;20439;-77
2022/03/17 10:50:07;;;;;;;10.90;9.80;;;;;;;9.29;56.67;95622.22;5045978;28;20488;-77
2022/03/17 10:53:02;;;;;;;16.47;12.23;;;;;;;9.48;55.42;95618.50;5057941;28;20507;-77
2022/03/17 10:55:32;;;;;;;9.80;7.70;;;;;;;9.80;53.45;95614.25;5046883;28;20425;-77
2022/03/17 10:58:20;;;;;;;10.80;8.70;;;;;;;9.45;55.09;95616.22;5056654;28;20437;-79
2022/03/17 11:00:50;;;;;;;10.17;9.23;;;;;;;9.52;55.88;95622.44;5056493;28;20414;-77
2022/03/17 11:03:17;;;;;;;10.10;9.10;;;;;;;9.84;55.07;95622.56;5066616;28;20585;-77
2022/03/17 11:05:44;;;;;;;9.60;8.10;;;;;;;9.85;53.84;95605.91;5059150;28;20426;-77
2022/03/17 11:08:10;;;;;;;9.63;8.43;;;;;;;9.25;55.90;95615.72;5046871;28;20541;-77
2022/03/17 11:10:38;;;;;;;8.43;7.73;;;;;;;9.01;56.85;95608.69;5062775;28;20466;-76
2022/03/17 11:13:11;;;;;;;9.17;8.30;;;;;;;9.17;57.12;95618.31;5055047;28;20472;-77
2022/03/17 11:15:40;;;;;;;9.50;8.60;;;;;;;9.49;55.38;95614.09;5065774;28;20461;-77
2022/03/17 11:18:09;;;;;;;8.87;8.03;;;;;;;9.24;56.73;95613.25;5063873;28;20424;-77
2022/03/17 11:20:35;;;;;;;10.93;9.83;;;;;;;8.76;58.45;95616.44;5036876;28;20437;-76
2022/03/17 11:23:11;;;;;;;12.80;11.50;;;;;;;9.09;57.91;95611.28;5026257;28;20436;-77
2022/03/17 11:25:37;;;;;;;11.60;10.57;;;;;;;8.60;60.24;95605.94;5052015;28;20920;-76
2022/03/17 11:28:04;;;;;;;15.23;13.63;;;;;;;8.88;60.40;95618.72;5061403;28;20448;-77
2022/03/17 11:30:40;;;;;;;12.17;8.90;;;;;;;8.31;61.12;95614.94;5055130;28;20453;-76
2022/03/17 11:33:21;;;;;;;11.17;10.10;;;;;;;7.72;63.14;95616.53;5061366;28;20539;-76
2022/03/17 11:35:53;;;;;;;17.70;13.13;;;;;;;8.14;62.98;95611.41;5038573;28;20786;-77
2022/03/17 11:38:23;;;;;;;14.90;13.10;;;;;;;8.38;62.84;95608.13;5054499;28;20990;-77
2022/03/17 11:41:13;;;;;;;15.80;13.80;;;;;;;7.85;63.92;95605.72;5055025;28;20421;-77
2022/03/17 11:43:39;;;;;;;12.27;11.17;;;;;;;8.04;64.22;95604.69;5025188;28;20453;-77
2022/03/17 11:46:19;;;;;;;14.30;12.80;;;;;;;8.21;63.57;95595.97;5048523;28;20425;-77
2022/03/17 11:48:47;;;;;;;15.20;12.50;;;;;;;8.20;63.95;95597.75;5048191;28;20426;-77
2022/03/17 11:51:15;;;;;;;13.20;10.73;;;;;;;8.27;63.41;95599.72;5032396;28;20862;-77